Time;durP1;ratioP1;P1;durP2;ratioP2;P2;SDS_P1;SDS_P2;PMS_P1;PMS_P2;Temp;Humidity;BMP_temperature;BMP_pressure;BME280_temperature;BME280_humidity;BME280_pressure;Samples;Min_cycle;Max_cycle;Signal;HPM_P1;HPM_P2
2021/08/07 00:00:14;;;;;;;8.32;5.00;;;;;;;24.19;54.98;100387.06;5046973;28;20043;-78
2021/08/07 00:02:40;;;;;;;7.13;4.75;;;;;;;24.14;55.03;100372.81;5062057;28;20064;-78
2021/08/07 00:05:06;;;;;;;6.97;5.40;;;;;;;24.14;55.16;100376.28;5063902;28;20047;-78
2021/08/07 00:07:34;;;;;;;6.32;4.93;;;;;;;24.11;55.10;100366.06;5061986;28;20032;-78
2021/08/07 00:10:01;;;;;;;6.07;5.15;;;;;;;24.10;55.16;100375.09;5055182;28;20071;-77
2021/08/07 00:12:26;;;;;;;5.68;5.07;;;;;;;24.06;55.08;100377.38;5061733;28;20071;-78
2021/08/07 00:14:52;;;;;;;6.63;5.15;;;;;;;24.07;55.08;100380.84;5064701;28;20036;-78
2021/08/07 00:17:17;;;;;;;6.85;4.70;;;;;;;24.03;55.23;100366.34;5064397;28;20041;-78
2021/08/07 00:19:43;;;;;;;6.05;4.95;;;;;;;24.04;55.28;100371.44;5061177;28;20041;-78
2021/08/07 00:22:08;;;;;;;7.00;4.65;;;;;;;24.01;55.42;100366.56;5068061;28;20115;-77
2021/08/07 00:24:34;;;;;;;8.43;5.38;;;;;;;23.97;55.34;100368.03;5061016;28;20074;-77
2021/08/07 00:26:59;;;;;;;9.25;5.60;;;;;;;23.98;55.26;100364.34;5075967;28;20044;-78
2021/08/07 00:29:25;;;;;;;7.18;5.22;;;;;;;23.99;55.16;100365.97;5065346;28;20036;-77
2021/08/07 00:31:50;;;;;;;6.35;4.88;;;;;;;23.95;55.30;100367.44;5066754;28;20045;-78
2021/08/07 00:34:18;;;;;;;8.85;5.22;;;;;;;23.93;55.38;100366.03;5063651;28;20029;-78
2021/08/07 00:36:47;;;;;;;8.40;5.47;;;;;;;23.91;55.56;100371.56;5063163;28;20040;-78
2021/08/07 00:39:13;;;;;;;7.95;4.82;;;;;;;23.91;55.50;100370.75;5063506;28;20057;-77
2021/08/07 00:41:42;;;;;;;7.05;5.18;;;;;;;23.91;55.61;100373.41;5057606;28;20531;-78
2021/08/07 00:44:08;;;;;;;6.80;5.10;;;;;;;23.91;55.41;100374.22;5077151;28;20115;-78
2021/08/07 00:46:38;;;;;;;11.45;5.93;;;;;;;23.77;55.46;100352.25;5061055;28;20102;-78
2021/08/07 00:49:04;;;;;;;6.88;5.10;;;;;;;23.86;55.52;100362.59;5060183;28;20036;-78
2021/08/07 00:51:31;;;;;;;7.70;5.57;;;;;;;23.86;55.41;100360.75;5064125;28;20536;-78
2021/08/07 00:54:01;;;;;;;7.55;5.00;;;;;;;23.79;55.49;100350.19;5064039;28;20379;-78
2021/08/07 00:56:27;;;;;;;7.03;5.03;;;;;;;23.64;55.39;100324.94;5066248;28;20033;-78
2021/08/07 00:59:03;;;;;;;8.48;5.63;;;;;;;23.82;55.65;100359.56;5062174;28;20609;-78
2021/08/07 01:01:43;;;;;;;8.32;5.55;;;;;;;23.74;55.57;100354.53;5080211;28;20052;-78
2021/08/07 01:04:20;;;;;;;8.73;5.05;;;;;;;23.81;55.47;100360.59;5048784;28;20494;-78
2021/08/07 01:07:05;;;;;;;7.05;5.00;;;;;;;23.71;55.64;100344.34;5064604;28;20063;-78
2021/08/07 01:09:41;;;;;;;7.50;5.20;;;;;;;23.68;55.82;100339.44;5076293;28;20036;-78
2021/08/07 01:12:22;;;;;;;6.53;4.85;;;;;;;23.76;55.59;100355.94;5060400;28;20122;-78
2021/08/07 01:14:50;;;;;;;7.47;5.25;;;;;;;23.76;55.62;100347.16;5078598;28;20126;-78
2021/08/07 01:17:25;;;;;;;7.93;5.22;;;;;;;23.66;55.46;100326.34;5083941;28;20036;-78
2021/08/07 01:20:18;;;;;;;7.28;5.10;;;;;;;23.75;55.84;100349.00;5065034;28;20052;-78
2021/08/07 01:22:54;;;;;;;6.78;5.22;;;;;;;23.73;55.50;100344.94;5061872;28;20044;-78
2021/08/07 01:25:23;;;;;;;9.43;5.50;;;;;;;23.65;55.75;100331.91;5061788;28;20103;-78
2021/08/07 01:27:55;;;;;;;8.05;5.20;;;;;;;23.70;55.92;100348.84;5060584;28;20422;-77
2021/08/07 01:30:25;;;;;;;9.07;5.05;;;;;;;23.67;55.67;100351.91;5063688;28;20040;-78
2021/08/07 01:32:53;;;;;;;6.43;5.60;;;;;;;23.69;55.71;100357.81;5046273;28;20040;-78
2021/08/07 01:35:21;;;;;;;9.07;5.63;;;;;;;23.63;56.07;100353.38;5077787;28;20402;-78
2021/08/07 01:37:50;;;;;;;7.07;5.13;;;;;;;23.66;55.81;100357.44;5063813;28;20033;-78
2021/08/07 01:40:35;;;;;;;6.82;4.95;;;;;;;23.63;55.81;100347.25;5063268;28;20028;-78
2021/08/07 01:43:15;;;;;;;6.70;5.30;;;;;;;23.64;55.80;100348.88;5062284;28;20383;-77
2021/08/07 01:45:47;;;;;;;8.30;5.15;;;;;;;23.62;56.02;100343.78;5059091;28;20039;-78
2021/08/07 01:48:26;;;;;;;7.57;5.07;;;;;;;23.57;55.98;100340.16;5076624;28;20494;-78
2021/08/07 01:51:06;;;;;;;6.47;5.20;;;;;;;23.60;55.83;100343.19;5070356;28;20086;-78
2021/08/07 01:53:37;;;;;;;7.30;5.40;;;;;;;23.59;56.11;100336.25;5063058;28;20111;-78
2021/08/07 01:56:14;;;;;;;9.10;5.10;;;;;;;23.58;56.09;100337.28;5062980;28;20032;-78
2021/08/07 01:58:48;;;;;;;6.78;4.78;;;;;;;23.58;56.02;100339.13;5062606;28;20064;-78
2021/08/07 02:01:17;;;;;;;7.35;5.05;;;;;;;23.57;56.06;100337.50;5061607;28;20027;-78
2021/08/07 02:03:45;;;;;;;6.03;5.25;;;;;;;23.56;55.98;100330.53;5061903;28;20037;-78
2021/08/07 02:06:13;;;;;;;8.20;5.72;;;;;;;23.44;55.77;100314.44;5062641;28;20454;-78
2021/08/07 02:08:40;;;;;;;8.18;5.15;;;;;;;23.55;56.12;100337.69;5064603;28;20036;-78
2021/08/07 02:11:08;;;;;;;8.95;5.40;;;;;;;23.54;56.15;100335.25;5074174;28;20075;-78
2021/08/07 02:13:35;;;;;;;7.97;5.07;;;;;;;23.44;55.84;100317.09;5043614;28;20052;-78
2021/08/07 02:16:10;;;;;;;10.55;5.47;;;;;;;23.52;55.93;100333.63;5044574;28;20048;-78
2021/08/07 02:18:39;;;;;;;6.57;5.10;;;;;;;23.52;56.01;100330.97;5061434;28;20137;-78
2021/08/07 02:21:06;;;;;;;7.60;4.90;;;;;;;23.52;55.84;100336.28;5064027;28;20109;-78
2021/08/07 02:23:39;;;;;;;7.30;5.07;;;;;;;23.49;55.97;100328.72;5062281;28;20040;-78
2021/08/07 02:26:10;;;;;;;;;;;;;;;23.49;56.05;100334.03;5061285;28;20058;-78
2021/08/07 02:28:44;;;;;;;6.57;4.82;;;;;;;23.46;56.22;100330.97;5062774;28;19912;-78
2021/08/07 02:31:13;;;;;;;6.60;4.78;;;;;;;23.41;56.05;100328.16;5074974;28;20055;-78
2021/08/07 02:33:43;;;;;;;9.85;5.25;;;;;;;23.47;55.80;100330.78;5063614;28;20028;-78
2021/08/07 02:36:13;;;;;;;8.15;4.97;;;;;;;23.43;56.02;100328.75;5075558;28;20149;-78
2021/08/07 02:38:41;;;;;;;7.93;4.93;;;;;;;23.46;56.19;100331.81;5063201;28;20036;-78
2021/08/07 02:41:08;;;;;;;8.70;5.55;;;;;;;23.46;55.94;100329.16;5061815;28;20029;-77
2021/08/07 02:43:40;;;;;;;6.00;4.80;;;;;;;23.44;56.09;100327.72;5060043;28;20082;-78
2021/08/07 02:46:08;;;;;;;6.93;5.00;;;;;;;23.42;55.99;100330.59;5060391;28;20394;-78
2021/08/07 02:48:34;;;;;;;7.18;4.78;;;;;;;23.43;55.86;100334.06;5047056;28;20164;-78
2021/08/07 02:51:00;;;;;;;6.43;4.95;;;;;;;23.39;56.05;100322.25;5061347;28;20032;-78
2021/08/07 02:53:28;;;;;;;6.25;5.15;;;;;;;23.18;56.02;100295.03;5047286;28;20152;-78
2021/08/07 02:55:54;;;;;;;8.15;4.78;;;;;;;23.40;56.27;100323.88;5065514;28;20037;-78
2021/08/07 02:58:26;;;;;;;6.43;5.05;;;;;;;23.41;55.89;100325.50;5061138;28;20040;-78
2021/08/07 03:00:52;;;;;;;6.53;4.68;;;;;;;23.39;55.85;100328.38;5057548;28;20032;-78
2021/08/07 03:03:21;;;;;;;6.07;4.47;;;;;;;23.39;56.04;100322.25;5049100;28;20098;-77
2021/08/07 03:05:47;;;;;;;7.15;4.85;;;;;;;23.33;56.23;100313.28;5063475;28;20385;-78
2021/08/07 03:08:13;;;;;;;7.72;5.30;;;;;;;23.38;56.05;100317.97;5064131;28;20090;-77
2021/08/07 03:10:43;;;;;;;7.57;5.20;;;;;;;23.39;56.07;100322.25;5063460;28;20086;-77
2021/08/07 03:13:13;;;;;;;6.07;4.57;;;;;;;23.34;55.92;100316.75;5062692;28;20055;-78
2021/08/07 03:15:38;;;;;;;6.75;5.18;;;;;;;23.38;56.13;100323.28;5064270;28;20040;-78
2021/08/07 03:18:04;;;;;;;7.45;4.63;;;;;;;23.37;55.99;100330.44;5045293;28;20098;-78
2021/08/07 03:20:34;;;;;;;6.53;4.40;;;;;;;23.37;56.11;100322.47;5058611;28;20562;-78
2021/08/07 03:23:08;;;;;;;7.63;4.88;;;;;;;23.34;56.04;100320.25;5079211;28;20029;-78
2021/08/07 03:25:37;;;;;;;7.70;4.65;;;;;;;23.31;56.19;100327.81;5063492;28;20036;-78
2021/08/07 03:28:09;;;;;;;6.80;4.88;;;;;;;23.32;56.10;100334.75;5048915;28;20041;-78
2021/08/07 03:30:37;;;;;;;6.43;4.70;;;;;;;23.22;56.18;100316.66;5059475;28;20033;-78
2021/08/07 03:33:04;;;;;;;5.78;4.32;;;;;;;23.21;56.11;100320.34;5078747;28;20073;-77
2021/08/07 03:35:31;;;;;;;5.18;4.20;;;;;;;23.31;56.26;100335.78;5059407;28;20041;-78
2021/08/07 03:37:57;;;;;;;6.25;4.43;;;;;;;23.30;56.34;100337.63;5057838;28;20048;-78
2021/08/07 03:40:24;;;;;;;7.22;4.70;;;;;;;23.28;56.35;100345.00;5064800;28;20056;-77
2021/08/07 03:42:51;;;;;;;7.80;5.15;;;;;;;23.29;55.96;100340.50;5064728;28;20048;-77
2021/08/07 03:45:22;;;;;;;5.55;4.47;;;;;;;23.29;56.13;100340.50;5061904;28;20409;-77
2021/08/07 03:47:53;;;;;;;5.90;4.50;;;;;;;23.28;56.23;100339.69;5064227;28;20524;-77
2021/08/07 03:50:22;;;;;;;7.13;4.88;;;;;;;23.26;56.10;100344.41;5068346;28;20082;-78
2021/08/07 03:52:48;;;;;;;11.27;4.80;;;;;;;23.24;55.98;100335.03;5064880;28;20123;-78
2021/08/07 03:55:16;;;;;;;6.53;4.55;;;;;;;23.24;56.12;100335.84;5066029;28;20044;-77
2021/08/07 03:58:00;;;;;;;6.63;4.18;;;;;;;23.15;56.31;100319.31;5067120;28;20051;-78
2021/08/07 04:00:46;;;;;;;5.78;4.45;;;;;;;23.23;56.50;100344.03;5057496;28;20136;-77
2021/08/07 04:03:21;;;;;;;6.05;4.40;;;;;;;23.20;56.26;100338.13;5067760;28;20126;-78
2021/08/07 04:05:47;;;;;;;8.35;4.68;;;;;;;23.15;56.39;100321.16;5066690;28;20067;-77
2021/08/07 04:08:13;;;;;;;8.10;5.00;;;;;;;23.22;56.07;100335.25;5065350;28;20047;-78
2021/08/07 04:10:43;;;;;;;7.65;4.72;;;;;;;23.22;55.97;100343.22;5061330;28;20151;-78
2021/08/07 04:13:10;;;;;;;7.68;4.65;;;;;;;23.22;56.17;100337.91;5046813;28;20057;-77
2021/08/07 04:15:38;;;;;;;6.93;4.03;;;;;;;23.12;56.03;100319.75;5067098;28;20052;-78
2021/08/07 04:18:05;;;;;;;6.18;4.53;;;;;;;23.23;56.26;100333.41;5065989;28;20486;-77
2021/08/07 04:20:33;;;;;;;4.88;4.05;;;;;;;23.12;55.96;100322.41;5066017;28;20055;-77
2021/08/07 04:22:59;;;;;;;7.88;4.90;;;;;;;23.19;56.08;100335.69;5062624;28;20044;-77
2021/08/07 04:25:29;;;;;;;7.57;4.40;;;;;;;23.20;55.94;100335.47;5050525;28;20162;-77
2021/08/07 04:27:55;;;;;;;7.78;5.03;;;;;;;22.87;55.93;100282.53;5064400;28;20045;-77
2021/08/07 04:30:21;;;;;;;6.15;4.20;;;;;;;23.18;56.01;100334.06;5067481;28;20044;-78
2021/08/07 04:32:49;;;;;;;6.05;4.38;;;;;;;23.12;55.91;100325.06;5066892;28;20736;-78
2021/08/07 04:35:15;;;;;;;5.75;4.20;;;;;;;23.10;56.00;100329.78;5067788;28;20039;-78
2021/08/07 04:37:45;;;;;;;6.93;4.00;;;;;;;23.08;56.06;100323.06;5063497;28;20376;-78
2021/08/07 04:40:11;;;;;;;8.20;4.80;;;;;;;23.16;55.96;100344.88;5067290;28;20037;-78
2021/08/07 04:42:37;;;;;;;7.63;4.55;;;;;;;23.12;56.24;100334.88;5067429;28;20059;-77
2021/08/07 04:45:05;;;;;;;5.40;4.50;;;;;;;23.05;56.01;100323.50;5065266;28;20052;-78
2021/08/07 04:47:31;;;;;;;6.15;4.43;;;;;;;23.14;55.94;100348.75;5050687;28;20040;-78
2021/08/07 04:49:57;;;;;;;6.45;4.45;;;;;;;23.09;56.25;100337.97;5067937;28;20059;-78
2021/08/07 04:52:24;;;;;;;7.40;4.45;;;;;;;23.12;56.21;100341.00;5050081;28;20032;-77
2021/08/07 04:54:50;;;;;;;6.00;4.28;;;;;;;23.15;56.00;100350.38;5066747;28;20123;-77
2021/08/07 04:57:16;;;;;;;7.15;4.28;;;;;;;23.13;55.93;100350.59;5066068;28;20086;-78
2021/08/07 04:59:41;;;;;;;6.43;3.85;;;;;;;23.11;56.20;100355.31;5065704;28;20028;-78
2021/08/07 05:02:07;;;;;;;6.35;4.20;;;;;;;23.11;56.22;100352.66;5067512;28;20036;-77
2021/08/07 05:04:34;;;;;;;6.93;4.18;;;;;;;23.11;56.18;100357.16;5066074;28;20032;-77
2021/08/07 05:06:59;;;;;;;6.22;4.32;;;;;;;23.09;55.96;100352.06;5066945;28;20475;-78
2021/08/07 05:09:26;;;;;;;6.88;4.15;;;;;;;23.13;56.18;100352.44;5049588;28;20040;-77
2021/08/07 05:12:04;;;;;;;7.35;4.28;;;;;;;23.07;56.04;100346.16;5066576;28;20076;-77
2021/08/07 05:14:30;;;;;;;7.95;4.20;;;;;;;23.04;56.13;100340.47;5065336;28;20466;-77
2021/08/07 05:16:55;;;;;;;7.30;4.55;;;;;;;23.10;56.07;100358.19;5049396;28;20064;-78
2021/08/07 05:19:21;;;;;;;5.43;4.03;;;;;;;23.00;56.12;100336.59;5065415;28;20036;-77
2021/08/07 05:21:46;;;;;;;7.68;4.25;;;;;;;23.11;55.89;100350.00;5079687;28;20039;-77
2021/08/07 05:24:12;;;;;;;10.45;4.85;;;;;;;23.10;55.83;100345.72;5031357;28;20040;-77
2021/08/07 05:26:38;;;;;;;6.20;4.30;;;;;;;23.10;56.29;100342.25;5064794;28;20040;-78
2021/08/07 05:29:03;;;;;;;6.90;4.22;;;;;;;23.09;56.20;100345.94;5067361;28;20066;-77
2021/08/07 05:31:29;;;;;;;8.52;4.43;;;;;;;23.09;56.15;100348.59;5066781;28;20036;-77
2021/08/07 05:33:54;;;;;;;7.40;4.30;;;;;;;23.08;56.25;100347.78;5048573;28;20101;-77
2021/08/07 05:36:20;;;;;;;7.28;4.10;;;;;;;23.06;55.96;100349.84;5066091;28;20059;-77
2021/08/07 05:38:46;;;;;;;5.93;4.45;;;;;;;23.03;56.03;100341.47;5067001;28;20036;-78
2021/08/07 05:41:11;;;;;;;6.70;4.18;;;;;;;23.09;55.80;100349.41;5050325;28;20435;-78
2021/08/07 05:43:41;;;;;;;7.22;4.50;;;;;;;23.12;55.87;100353.47;5065563;28;20501;-78
2021/08/07 05:46:07;;;;;;;6.38;4.43;;;;;;;23.11;55.81;100352.66;5066270;28;20090;-78
2021/08/07 05:48:33;;;;;;;6.32;4.05;;;;;;;23.12;55.76;100354.28;5063632;28;20040;-77
2021/08/07 05:51:00;;;;;;;5.07;3.85;;;;;;;23.07;56.04;100342.69;5080339;28;20090;-78
2021/08/07 05:53:25;;;;;;;6.60;4.45;;;;;;;23.11;55.77;100350.00;5061154;28;20054;-78
2021/08/07 05:55:54;;;;;;;5.53;3.90;;;;;;;23.04;56.01;100343.91;5060823;28;20122;-78
2021/08/07 05:58:21;;;;;;;8.07;4.50;;;;;;;23.10;55.68;100342.25;5061005;28;20032;-78
2021/08/07 06:00:47;;;;;;;6.75;4.18;;;;;;;23.12;55.74;100353.47;5060650;28;20041;-78
2021/08/07 06:03:13;;;;;;;7.60;4.78;;;;;;;23.11;55.80;100346.53;5059687;28;20099;-78
2021/08/07 06:05:44;;;;;;;6.60;4.00;;;;;;;23.05;55.87;100334.13;5059910;28;20055;-77
2021/08/07 06:08:10;;;;;;;8.25;4.07;;;;;;;23.11;55.84;100346.53;5073354;28;20045;-76
2021/08/07 06:10:37;;;;;;;6.30;3.72;;;;;;;23.12;56.01;100346.31;5060668;28;20419;-76
2021/08/07 06:13:03;;;;;;;9.90;4.45;;;;;;;23.10;55.93;100337.75;5056833;28;20072;-76
2021/08/07 06:15:29;;;;;;;6.63;4.28;;;;;;;23.07;55.84;100332.88;5059564;28;20036;-76
2021/08/07 06:17:56;;;;;;;7.40;4.10;;;;;;;23.13;55.73;100331.19;5061574;28;20037;-76
2021/08/07 06:20:23;;;;;;;5.18;4.03;;;;;;;23.15;55.71;100326.47;5059321;28;20033;-76
2021/08/07 06:22:51;;;;;;;6.45;3.92;;;;;;;23.13;55.94;100332.00;5060473;28;20515;-75
2021/08/07 06:25:17;;;;;;;6.72;4.10;;;;;;;23.03;55.71;100299.00;5056453;28;20486;-76
2021/08/07 06:27:45;;;;;;;5.38;3.70;;;;;;;23.21;55.30;100321.16;5061487;28;20065;-76
2021/08/07 06:30:11;;;;;;;6.00;4.20;;;;;;;23.21;55.44;100323.81;5047880;28;20045;-76
2021/08/07 06:32:37;;;;;;;9.30;4.30;;;;;;;23.27;55.00;100324.78;5074124;28;20157;-76
2021/08/07 06:35:03;;;;;;;8.20;4.43;;;;;;;23.33;54.88;100331.88;5063355;28;20424;-75
2021/08/07 06:37:29;;;;;;;6.07;3.80;;;;;;;23.34;54.61;100322.06;5046292;28;20121;-75
2021/08/07 06:39:56;;;;;;;7.95;4.30;;;;;;;23.38;54.83;100333.91;5059843;28;20475;-75
2021/08/07 06:42:21;;;;;;;5.22;3.85;;;;;;;23.40;54.45;100337.97;5057198;28;20048;-75
2021/08/07 06:45:13;;;;;;;4.93;3.83;;;;;;;23.38;54.49;100333.91;5051792;28;20702;-75
2021/08/07 06:47:39;;;;;;;8.38;4.60;;;;;;;23.41;54.66;100342.28;5049538;28;20095;-76
2021/08/07 06:50:06;;;;;;;7.28;4.13;;;;;;;23.38;54.52;100342.69;5059850;28;20170;-75
2021/08/07 06:52:34;;;;;;;6.63;3.97;;;;;;;23.34;54.52;100340.66;5057722;28;20032;-76
2021/08/07 06:55:00;;;;;;;6.90;4.20;;;;;;;23.35;54.41;100347.63;5071743;28;20032;-77
2021/08/07 06:57:27;;;;;;;8.35;3.63;;;;;;;23.57;53.94;100353.44;5052288;28;20534;-72
2021/08/07 06:59:53;;;;;;;8.20;4.00;;;;;;;23.68;53.25;100345.56;5061260;28;20028;-72
2021/08/07 07:02:20;;;;;;;6.35;4.10;;;;;;;23.71;53.45;100349.66;5063153;28;20047;-72
2021/08/07 07:04:49;;;;;;;6.07;4.25;;;;;;;23.72;53.30;100357.41;5077485;28;20739;-72
2021/08/07 07:07:16;;;;;;;5.57;3.97;;;;;;;23.61;53.58;100339.50;5061304;28;20127;-73
2021/08/07 07:09:42;;;;;;;9.48;3.90;;;;;;;23.55;53.47;100328.91;5060977;28;20090;-72
2021/08/07 07:12:08;;;;;;;10.70;4.13;;;;;;;23.61;53.51;100338.69;5042785;28;20112;-72
2021/08/07 07:14:34;;;;;;;8.13;4.20;;;;;;;23.67;53.49;100349.25;5076320;28;20036;-72
2021/08/07 07:17:00;;;;;;;7.97;4.00;;;;;;;23.68;53.41;100350.88;5059005;28;20036;-73
2021/08/07 07:19:29;;;;;;;6.68;3.97;;;;;;;23.67;53.43;100346.59;5060135;28;20482;-72
2021/08/07 07:21:56;;;;;;;6.90;4.45;;;;;;;23.58;53.30;100328.50;5060654;28;20150;-72
2021/08/07 07:24:21;;;;;;;8.10;4.20;;;;;;;23.70;53.31;100351.50;5073743;28;20040;-73
2021/08/07 07:26:47;;;;;;;6.97;3.97;;;;;;;23.71;53.38;100342.50;5061681;28;20037;-72
2021/08/07 07:29:13;;;;;;;7.60;4.40;;;;;;;23.71;53.27;100334.53;5058740;28;20094;-72
2021/08/07 07:31:40;;;;;;;6.18;3.88;;;;;;;23.66;53.24;100331.69;5062942;28;20037;-73
2021/08/07 07:34:07;;;;;;;6.72;3.95;;;;;;;23.77;53.17;100343.47;5057683;28;20079;-73
2021/08/07 07:36:33;;;;;;;7.05;4.00;;;;;;;23.81;53.10;100342.81;5058880;28;20036;-73
2021/08/07 07:38:59;;;;;;;6.10;3.95;;;;;;;23.80;52.80;100343.84;5058619;28;20478;-73
2021/08/07 07:41:25;;;;;;;5.15;3.55;;;;;;;23.82;52.89;100346.28;5058498;28;20044;-72
2021/08/07 07:43:51;;;;;;;6.20;3.60;;;;;;;23.43;52.90;100287.06;5060943;28;20745;-73
2021/08/07 07:46:17;;;;;;;7.72;3.58;;;;;;;23.83;52.82;100355.06;5041021;28;20399;-74
2021/08/07 07:48:43;;;;;;;5.30;3.80;;;;;;;23.83;53.14;100353.22;5060258;28;20036;-73
2021/08/07 07:51:10;;;;;;;6.18;4.05;;;;;;;23.83;52.86;100345.25;5056569;28;20033;-74
2021/08/07 07:53:37;;;;;;;8.93;4.03;;;;;;;23.80;53.13;100348.34;5054104;28;20043;-75
2021/08/07 07:56:03;;;;;;;7.78;3.45;;;;;;;23.88;52.79;100365.84;5041777;28;20036;-73
2021/08/07 07:58:29;;;;;;;7.18;4.15;;;;;;;23.82;53.08;100351.59;5071410;28;20045;-73
2021/08/07 08:00:55;;;;;;;6.38;4.00;;;;;;;23.83;53.19;100355.88;5057489;28;20166;-75
2021/08/07 08:03:21;;;;;;;6.90;3.40;;;;;;;23.70;53.06;100338.22;5057386;28;20037;-73
2021/08/07 08:05:46;;;;;;;7.22;3.58;;;;;;;23.83;53.16;100355.06;5063620;28;20036;-73
2021/08/07 08:08:12;;;;;;;6.95;3.70;;;;;;;23.81;53.11;100358.75;5063045;28;20460;-72
2021/08/07 08:10:41;;;;;;;7.70;3.83;;;;;;;23.85;52.96;100369.75;5061886;28;20734;-72
2021/08/07 08:13:11;;;;;;;5.63;3.67;;;;;;;23.85;52.95;100366.28;5057652;28;20055;-72
2021/08/07 08:15:37;;;;;;;5.70;3.70;;;;;;;23.87;52.89;100361.56;5057883;28;20033;-72
2021/08/07 08:18:08;;;;;;;8.15;4.10;;;;;;;23.86;52.98;100358.09;5060076;28;20135;-74
2021/08/07 08:20:36;;;;;;;9.10;4.10;;;;;;;23.89;52.98;100356.88;5055741;28;20525;-74
2021/08/07 08:23:03;;;;;;;7.47;3.90;;;;;;;23.85;52.83;100348.50;5058871;28;20036;-74
2021/08/07 08:25:29;;;;;;;7.30;3.92;;;;;;;23.93;52.62;100358.88;5055246;28;20621;-74
2021/08/07 08:27:55;;;;;;;9.93;3.70;;;;;;;23.94;52.58;100352.53;5071159;28;20127;-75
2021/08/07 08:30:22;;;;;;;6.95;3.78;;;;;;;23.97;52.63;100353.94;5060102;28;20113;-74
2021/08/07 08:32:48;;;;;;;7.85;3.67;;;;;;;23.95;52.46;100354.16;5057458;28;20043;-73
2021/08/07 08:35:14;;;;;;;5.75;3.92;;;;;;;23.98;52.58;100350.22;5058954;28;20040;-72
2021/08/07 08:37:40;;;;;;;8.80;4.43;;;;;;;23.98;52.44;100350.22;5060490;28;20040;-72
2021/08/07 08:40:08;;;;;;;5.80;3.88;;;;;;;23.97;52.75;100346.75;5060353;28;20033;-72
2021/08/07 08:42:34;;;;;;;7.90;3.58;;;;;;;24.03;52.69;100347.72;5076451;28;20153;-72
2021/08/07 08:45:00;;;;;;;6.60;3.50;;;;;;;24.03;52.43;100339.75;5063734;28;20140;-75
2021/08/07 08:47:26;;;;;;;6.93;3.47;;;;;;;23.87;52.37;100316.38;5067326;28;20036;-73
2021/08/07 08:49:53;;;;;;;10.38;3.88;;;;;;;24.05;51.88;100330.50;5062643;28;20041;-72
2021/08/07 08:52:24;;;;;;;4.75;3.30;;;;;;;24.07;51.93;100331.13;5077619;28;20039;-75
2021/08/07 08:54:50;;;;;;;;;;;;;;;24.08;52.10;100324.78;5064901;28;20132;-73
2021/08/07 08:57:17;;;;;;;7.38;3.40;;;;;;;24.09;52.39;100325.59;5066067;28;19962;-73
2021/08/07 08:59:44;;;;;;;7.57;3.85;;;;;;;24.12;52.27;100327.81;5067083;28;20033;-75
2021/08/07 09:02:10;;;;;;;9.70;3.90;;;;;;;24.04;51.90;100312.94;5064476;28;20024;-74
2021/08/07 09:04:36;;;;;;;7.50;3.50;;;;;;;24.03;51.16;100313.16;5063784;28;20067;-74
2021/08/07 09:07:02;;;;;;;8.32;3.55;;;;;;;23.96;51.15;100302.59;5065735;28;20044;-74
2021/08/07 09:09:40;;;;;;;9.68;3.50;;;;;;;24.08;51.28;100306.16;5064446;28;20024;-72
2021/08/07 09:12:11;;;;;;;12.40;3.50;;;;;;;24.22;52.56;100316.63;5065311;28;20054;-75
2021/08/07 09:14:42;;;;;;;27.15;3.78;;;;;;;24.27;52.88;100309.63;5081881;28;20387;-74
2021/08/07 09:17:17;;;;;;;6.93;3.42;;;;;;;24.23;53.05;100299.63;5063545;28;20027;-75
2021/08/07 09:19:53;;;;;;;10.30;3.30;;;;;;;24.19;52.96;100307.25;5061664;28;20037;-75
2021/08/07 09:22:31;;;;;;;10.35;3.47;;;;;;;24.22;52.65;100306.81;5064460;28;20025;-74
2021/08/07 09:25:11;;;;;;;7.95;3.83;;;;;;;24.21;52.50;100299.03;5055944;28;20504;-75
2021/08/07 09:27:48;;;;;;;10.52;3.42;;;;;;;24.20;52.67;100302.75;5080714;28;20099;-76
2021/08/07 09:30:17;;;;;;;13.45;3.03;;;;;;;24.18;52.94;100295.00;5079179;28;20497;-74
2021/08/07 09:32:49;;;;;;;9.70;2.75;;;;;;;24.16;52.29;100302.38;5063008;28;20441;-73
2021/08/07 09:35:19;;;;;;;10.02;3.63;;;;;;;24.16;51.88;100299.72;5066455;28;20701;-74
2021/08/07 09:37:46;;;;;;;10.30;3.55;;;;;;;24.02;51.85;100277.75;5065347;28;20109;-73
2021/08/07 09:40:13;;;;;;;9.05;3.40;;;;;;;24.10;51.62;100287.31;5066700;28;20069;-74
2021/08/07 09:42:57;;;;;;;8.40;3.17;;;;;;;24.04;51.58;100278.34;5064817;28;20032;-73
2021/08/07 09:45:25;;;;;;;8.73;3.35;;;;;;;24.15;51.30;100294.63;5056348;28;20082;-74
2021/08/07 09:48:12;;;;;;;5.85;2.97;;;;;;;24.11;51.33;100292.41;5073757;28;20475;-74
2021/08/07 09:50:38;;;;;;;8.32;2.95;;;;;;;24.06;51.43;100284.28;5055932;28;20033;-74
2021/08/07 09:53:18;;;;;;;6.75;3.03;;;;;;;23.94;51.80;100259.44;5081010;28;20035;-76
2021/08/07 09:56:01;;;;;;;8.38;3.60;;;;;;;24.10;51.69;100292.63;5067661;28;20090;-74
2021/08/07 09:58:33;;;;;;;4.32;2.70;;;;;;;23.96;51.68;100268.00;5065101;28;20090;-74
2021/08/07 10:00:58;;;;;;;6.95;2.70;;;;;;;24.05;51.47;100284.47;5055025;28;20044;-74
2021/08/07 10:03:27;;;;;;;4.68;2.60;;;;;;;24.07;51.68;100285.91;5082500;28;20032;-74
2021/08/07 10:06:20;;;;;;;6.45;3.08;;;;;;;24.08;51.51;100290.19;5067711;28;20043;-74
2021/08/07 10:08:49;;;;;;;8.70;3.10;;;;;;;24.09;51.22;100283.03;5066345;28;20398;-74
2021/08/07 10:11:19;;;;;;;9.07;3.13;;;;;;;24.11;51.06;100283.63;5069637;28;20051;-74
2021/08/07 10:13:45;;;;;;;6.20;3.10;;;;;;;23.99;50.89;100278.19;5066952;28;20051;-74
2021/08/07 10:16:19;;;;;;;6.00;2.40;;;;;;;24.05;50.95;100285.28;5065039;28;20062;-74
2021/08/07 10:18:46;;;;;;;8.50;2.92;;;;;;;24.03;50.66;100284.69;5047673;28;20557;-74
2021/08/07 10:21:13;;;;;;;6.78;2.60;;;;;;;24.03;50.75;100281.22;5080783;28;20040;-74
2021/08/07 10:23:39;;;;;;;11.07;2.90;;;;;;;23.96;50.79;100269.84;5064835;28;20037;-75
2021/08/07 10:26:08;;;;;;;5.25;2.65;;;;;;;23.95;50.77;100274.38;5065730;28;20037;-74
2021/08/07 10:28:36;;;;;;;3.47;2.40;;;;;;;24.01;50.89;100270.00;5066087;28;20047;-74
2021/08/07 10:31:02;;;;;;;4.70;3.22;;;;;;;24.01;50.79;100275.31;5064702;28;20060;-74
2021/08/07 10:33:31;;;;;;;3.88;2.40;;;;;;;24.05;50.37;100268.53;5063205;28;20119;-74
2021/08/07 10:35:58;;;;;;;6.65;2.47;;;;;;;24.00;50.32;100265.72;5061149;28;20036;-74
2021/08/07 10:38:24;;;;;;;5.57;2.60;;;;;;;23.96;50.53;100268.00;5067360;28;20040;-74
2021/08/07 10:40:49;;;;;;;6.47;2.67;;;;;;;23.95;50.69;100260.25;5065446;28;20040;-74
2021/08/07 10:43:17;;;;;;;6.63;2.78;;;;;;;23.99;50.48;100261.44;5059304;28;20025;-74
2021/08/07 10:45:43;;;;;;;3.63;2.63;;;;;;;23.91;50.81;100249.25;5066005;28;20398;-74
2021/08/07 10:48:34;;;;;;;4.30;2.28;;;;;;;23.98;50.37;100262.47;5066398;28;20041;-74
2021/08/07 10:51:00;;;;;;;7.03;2.58;;;;;;;23.97;50.45;100253.69;5048240;28;20120;-74
2021/08/07 10:53:38;;;;;;;5.97;2.80;;;;;;;23.98;50.71;100252.66;5063122;28;20067;-74
2021/08/07 10:56:04;;;;;;;4.63;2.50;;;;;;;23.89;50.69;100229.25;5060988;28;20036;-73
2021/08/07 10:58:47;;;;;;;4.97;2.30;;;;;;;23.97;50.40;100244.88;5066056;28;20075;-74
2021/08/07 11:01:25;;;;;;;5.03;2.85;;;;;;;23.97;50.33;100244.88;5048798;28;20383;-73
2021/08/07 11:04:03;;;;;;;5.82;2.85;;;;;;;23.96;50.46;100253.91;5064822;28;20192;-76
2021/08/07 11:06:37;;;;;;;4.07;2.40;;;;;;;23.99;50.56;100240.16;5064033;28;20383;-74
2021/08/07 11:09:26;;;;;;;5.43;2.35;;;;;;;23.96;50.74;100236.09;5056861;28;20056;-73
2021/08/07 11:12:12;;;;;;;9.38;2.80;;;;;;;23.93;50.93;100241.06;5065820;28;20040;-73
2021/08/07 11:14:44;;;;;;;6.70;2.67;;;;;;;23.95;51.03;100238.97;5051220;28;20052;-74
2021/08/07 11:17:12;;;;;;;7.47;2.40;;;;;;;23.96;50.97;100237.94;5065187;28;20028;-73
2021/08/07 11:19:48;;;;;;;8.43;2.92;;;;;;;23.83;51.11;100216.81;5064841;28;20040;-73
2021/08/07 11:22:40;;;;;;;4.60;2.40;;;;;;;23.96;51.08;100233.44;5059698;28;20139;-73
2021/08/07 11:25:10;;;;;;;3.47;2.53;;;;;;;23.94;51.09;100232.03;5055731;28;20111;-73
2021/08/07 11:27:45;;;;;;;3.20;2.38;;;;;;;23.93;51.49;100236.53;5057027;28;20037;-73
2021/08/07 11:30:20;;;;;;;3.95;2.50;;;;;;;23.95;51.44;100223.84;5063667;28;20040;-73
2021/08/07 11:32:58;;;;;;;5.20;2.50;;;;;;;23.99;51.42;100229.53;5067516;28;20335;-73